sensor_id;sensor_type;location;lat;lon;timestamp;pressure;altitude;pressure_sealevel;temperature;humidity
34328;BME280;20588;48.840;10.064;2024-02-16T00:01:22;96312.13;;;11.55;nan
34328;BME280;20588;48.840;10.064;2024-02-16T00:03:48;96298.16;;;11.63;nan
34328;BME280;20588;48.840;10.064;2024-02-16T00:06:14;96301.09;;;11.78;nan
34328;BME280;20588;48.840;10.064;2024-02-16T00:08:40;96300.22;;;11.84;nan
34328;BME280;20588;48.840;10.064;2024-02-16T00:11:06;96297.84;;;11.82;nan
34328;BME280;20588;48.840;10.064;2024-02-16T00:13:32;96306.25;;;11.89;nan
34328;BME280;20588;48.840;10.064;2024-02-16T00:15:58;96304.81;;;12.16;nan
34328;BME280;20588;48.840;10.064;2024-02-16T00:18:25;96301.00;;;12.07;nan
34328;BME280;20588;48.840;10.064;2024-02-16T00:20:51;96311.53;;;12.06;nan
34328;BME280;20588;48.840;10.064;2024-02-16T00:23:17;96302.34;;;12.21;nan
34328;BME280;20588;48.840;10.064;2024-02-16T00:25:44;96305.03;;;12.15;nan
34328;BME280;20588;48.840;10.064;2024-02-16T00:28:11;96305.03;;;12.03;nan
34328;BME280;20588;48.840;10.064;2024-02-16T00:30:37;96304.25;;;12.03;nan
34328;BME280;20588;48.840;10.064;2024-02-16T00:33:04;96303.22;;;11.92;nan
34328;BME280;20588;48.840;10.064;2024-02-16T00:35:30;96310.28;;;11.97;nan
34328;BME280;20588;48.840;10.064;2024-02-16T00:37:59;96308.63;;;12.25;nan
34328;BME280;20588;48.840;10.064;2024-02-16T00:40:25;96306.38;;;12.06;nan
34328;BME280;20588;48.840;10.064;2024-02-16T00:42:52;96312.09;;;11.96;nan
34328;BME280;20588;48.840;10.064;2024-02-16T00:45:18;96311.31;;;11.84;nan
34328;BME280;20588;48.840;10.064;2024-02-16T00:47:44;96317.22;;;11.73;nan
34328;BME280;20588;48.840;10.064;2024-02-16T00:50:11;96315.59;;;11.61;nan
34328;BME280;20588;48.840;10.064;2024-02-16T00:52:38;96307.63;;;11.51;nan
34328;BME280;20588;48.840;10.064;2024-02-16T00:55:05;96303.22;;;11.40;nan
34328;BME280;20588;48.840;10.064;2024-02-16T00:57:31;96307.47;;;11.34;nan
34328;BME280;20588;48.840;10.064;2024-02-16T01:00:00;96303.19;;;11.28;nan
34328;BME280;20588;48.840;10.064;2024-02-16T01:02:26;96302.84;;;11.25;nan
34328;BME280;20588;48.840;10.064;2024-02-16T01:04:52;96302.47;;;11.21;nan
34328;BME280;20588;48.840;10.064;2024-02-16T01:07:18;96292.97;;;11.22;nan
34328;BME280;20588;48.840;10.064;2024-02-16T01:09:44;96295.78;;;11.20;nan
34328;BME280;20588;48.840;10.064;2024-02-16T01:12:10;96307.84;;;11.20;nan
34328;BME280;20588;48.840;10.064;2024-02-16T01:14:36;96302.91;;;11.18;nan
34328;BME280;20588;48.840;10.064;2024-02-16T01:17:02;96303.03;;;11.12;nan
34328;BME280;20588;48.840;10.064;2024-02-16T01:19:28;96297.97;;;11.05;nan
34328;BME280;20588;48.840;10.064;2024-02-16T01:21:56;96296.47;;;10.98;nan
34328;BME280;20588;48.840;10.064;2024-02-16T01:24:24;96295.41;;;10.87;nan
34328;BME280;20588;48.840;10.064;2024-02-16T01:26:50;96296.72;;;10.78;nan
34328;BME280;20588;48.840;10.064;2024-02-16T01:29:16;96297.78;;;10.70;nan
34328;BME280;20588;48.840;10.064;2024-02-16T01:31:42;96299.41;;;10.65;nan
34328;BME280;20588;48.840;10.064;2024-02-16T01:34:08;96291.59;;;10.60;nan
34328;BME280;20588;48.840;10.064;2024-02-16T01:36:34;96297.00;;;10.52;nan
34328;BME280;20588;48.840;10.064;2024-02-16T01:39:00;96295.28;;;10.46;nan
34328;BME280;20588;48.840;10.064;2024-02-16T01:41:27;96305.44;;;10.41;nan
34328;BME280;20588;48.840;10.064;2024-02-16T01:43:56;96299.56;;;10.34;nan
34328;BME280;20588;48.840;10.064;2024-02-16T01:46:22;96292.13;;;10.26;nan
34328;BME280;20588;48.840;10.064;2024-02-16T01:48:49;96287.03;;;10.19;nan
34328;BME280;20588;48.840;10.064;2024-02-16T01:51:16;96292.28;;;10.13;nan
34328;BME280;20588;48.840;10.064;2024-02-16T01:53:42;96289.72;;;10.06;nan
34328;BME280;20588;48.840;10.064;2024-02-16T01:56:08;96297.47;;;10.00;nan
34328;BME280;20588;48.840;10.064;2024-02-16T01:58:34;96290.41;;;9.95;nan
34328;BME280;20588;48.840;10.064;2024-02-16T02:01:01;96300.75;;;9.89;nan
34328;BME280;20588;48.840;10.064;2024-02-16T02:03:27;96298.03;;;9.84;nan
34328;BME280;20588;48.840;10.064;2024-02-16T02:05:53;96290.56;;;9.76;nan
34328;BME280;20588;48.840;10.064;2024-02-16T02:08:22;96290.44;;;9.71;nan
34328;BME280;20588;48.840;10.064;2024-02-16T02:10:48;96291.06;;;9.66;nan
34328;BME280;20588;48.840;10.064;2024-02-16T02:13:15;96295.03;;;9.62;nan
34328;BME280;20588;48.840;10.064;2024-02-16T02:15:41;96289.97;;;9.56;nan
34328;BME280;20588;48.840;10.064;2024-02-16T02:18:07;96288.78;;;9.52;nan
34328;BME280;20588;48.840;10.064;2024-02-16T02:20:33;96297.31;;;9.46;nan
34328;BME280;20588;48.840;10.064;2024-02-16T02:22:59;96297.94;;;9.41;nan
34328;BME280;20588;48.840;10.064;2024-02-16T02:25:25;96294.44;;;9.36;nan
34328;BME280;20588;48.840;10.064;2024-02-16T02:27:54;96303.53;;;9.32;nan
34328;BME280;20588;48.840;10.064;2024-02-16T02:30:20;96298.25;;;9.27;nan
34328;BME280;20588;48.840;10.064;2024-02-16T02:32:47;96289.38;;;9.23;nan
34328;BME280;20588;48.840;10.064;2024-02-16T02:35:15;96291.41;;;9.14;nan
34328;BME280;20588;48.840;10.064;2024-02-16T02:37:41;96283.16;;;9.05;nan
34328;BME280;20588;48.840;10.064;2024-02-16T02:40:08;96283.59;;;9.02;nan
34328;BME280;20588;48.840;10.064;2024-02-16T02:42:35;96285.16;;;8.97;nan
34328;BME280;20588;48.840;10.064;2024-02-16T02:45:01;96279.69;;;8.93;nan
34328;BME280;20588;48.840;10.064;2024-02-16T02:47:27;96280.84;;;8.91;nan
34328;BME280;20588;48.840;10.064;2024-02-16T02:49:53;96278.69;;;8.88;nan
34328;BME280;20588;48.840;10.064;2024-02-16T02:52:21;96279.31;;;8.83;nan
34328;BME280;20588;48.840;10.064;2024-02-16T02:54:47;96274.59;;;8.80;nan
34328;BME280;20588;48.840;10.064;2024-02-16T02:57:13;96273.63;;;8.81;nan
34328;BME280;20588;48.840;10.064;2024-02-16T02:59:39;96270.66;;;8.78;nan
34328;BME280;20588;48.840;10.064;2024-02-16T03:02:05;96276.63;;;8.72;nan
34328;BME280;20588;48.840;10.064;2024-02-16T03:04:31;96285.91;;;8.66;nan
34328;BME280;20588;48.840;10.064;2024-02-16T03:06:57;96285.16;;;8.59;nan
34328;BME280;20588;48.840;10.064;2024-02-16T03:09:23;96284.78;;;8.49;nan
34328;BME280;20588;48.840;10.064;2024-02-16T03:11:49;96282.66;;;8.40;nan
34328;BME280;20588;48.840;10.064;2024-02-16T03:14:17;96280.09;;;8.33;nan
34328;BME280;20588;48.840;10.064;2024-02-16T03:16:43;96283.47;;;8.27;nan
34328;BME280;20588;48.840;10.064;2024-02-16T03:19:09;96290.00;;;8.23;nan
34328;BME280;20588;48.840;10.064;2024-02-16T03:21:35;96279.09;;;8.21;nan
34328;BME280;20588;48.840;10.064;2024-02-16T03:24:05;96290.75;;;8.17;nan
34328;BME280;20588;48.840;10.064;2024-02-16T03:26:31;96285.22;;;8.14;nan
34328;BME280;20588;48.840;10.064;2024-02-16T03:28:58;96285.63;;;8.11;nan
34328;BME280;20588;48.840;10.064;2024-02-16T03:31:24;96287.84;;;8.07;nan
34328;BME280;20588;48.840;10.064;2024-02-16T03:33:51;96286.63;;;8.03;nan
34328;BME280;20588;48.840;10.064;2024-02-16T03:36:18;96286.22;;;8.00;nan
34328;BME280;20588;48.840;10.064;2024-02-16T03:38:45;96285.66;;;7.98;nan
34328;BME280;20588;48.840;10.064;2024-02-16T03:41:19;96294.53;;;7.95;nan
34328;BME280;20588;48.840;10.064;2024-02-16T03:43:45;96291.38;;;7.93;nan
34328;BME280;20588;48.840;10.064;2024-02-16T03:46:12;96293.34;;;7.91;nan
34328;BME280;20588;48.840;10.064;2024-02-16T03:48:38;96288.81;;;7.87;nan
34328;BME280;20588;48.840;10.064;2024-02-16T03:51:05;96294.75;;;7.81;nan
34328;BME280;20588;48.840;10.064;2024-02-16T03:53:31;96286.66;;;7.77;nan
34328;BME280;20588;48.840;10.064;2024-02-16T03:55:58;96286.47;;;7.72;nan
34328;BME280;20588;48.840;10.064;2024-02-16T03:58:25;96291.59;;;7.66;nan
34328;BME280;20588;48.840;10.064;2024-02-16T04:00:51;96289.81;;;7.60;nan
34328;BME280;20588;48.840;10.064;2024-02-16T04:03:20;96295.53;;;7.55;nan
34328;BME280;20588;48.840;10.064;2024-02-16T04:05:46;96295.31;;;7.50;nan
34328;BME280;20588;48.840;10.064;2024-02-16T04:08:12;96296.72;;;7.46;nan
34328;BME280;20588;48.840;10.064;2024-02-16T04:10:38;96298.09;;;7.42;nan
34328;BME280;20588;48.840;10.064;2024-02-16T04:13:04;96291.38;;;7.41;nan
34328;BME280;20588;48.840;10.064;2024-02-16T04:15:30;96287.84;;;7.42;nan
34328;BME280;20588;48.840;10.064;2024-02-16T04:17:57;96297.91;;;7.44;nan
34328;BME280;20588;48.840;10.064;2024-02-16T04:20:23;96295.72;;;7.41;nan
34328;BME280;20588;48.840;10.064;2024-02-16T04:22:49;96307.53;;;7.42;nan
34328;BME280;20588;48.840;10.064;2024-02-16T04:25:15;96300.03;;;7.40;nan
34328;BME280;20588;48.840;10.064;2024-02-16T04:27:41;96297.09;;;7.36;nan
34328;BME280;20588;48.840;10.064;2024-02-16T04:30:07;96302.19;;;7.36;nan
34328;BME280;20588;48.840;10.064;2024-02-16T04:32:33;96301.44;;;7.36;nan
34328;BME280;20588;48.840;10.064;2024-02-16T04:34:59;96302.19;;;7.36;nan
34328;BME280;20588;48.840;10.064;2024-02-16T04:37:25;96309.09;;;7.36;nan
34328;BME280;20588;48.840;10.064;2024-02-16T04:39:52;96316.78;;;7.36;nan
34328;BME280;20588;48.840;10.064;2024-02-16T04:42:18;96316.59;;;7.38;nan
34328;BME280;20588;48.840;10.064;2024-02-16T04:44:44;96324.84;;;7.39;nan
34328;BME280;20588;48.840;10.064;2024-02-16T04:47:10;96327.22;;;7.41;nan
34328;BME280;20588;48.840;10.064;2024-02-16T04:49:37;96322.69;;;7.43;nan
34328;BME280;20588;48.840;10.064;2024-02-16T04:52:03;96327.81;;;7.43;nan
34328;BME280;20588;48.840;10.064;2024-02-16T04:54:29;96318.56;;;7.42;nan
34328;BME280;20588;48.840;10.064;2024-02-16T04:56:55;96325.63;;;7.40;nan
34328;BME280;20588;48.840;10.064;2024-02-16T04:59:22;96318.34;;;7.37;nan
34328;BME280;20588;48.840;10.064;2024-02-16T05:01:48;96322.47;;;7.38;nan
34328;BME280;20588;48.840;10.064;2024-02-16T05:04:14;96322.47;;;7.38;nan
34328;BME280;20588;48.840;10.064;2024-02-16T05:06:43;96328.41;;;7.38;nan
34328;BME280;20588;48.840;10.064;2024-02-16T05:09:12;96322.28;;;7.39;nan
34328;BME280;20588;48.840;10.064;2024-02-16T05:11:38;96328.81;;;7.42;nan
34328;BME280;20588;48.840;10.064;2024-02-16T05:14:04;96331.16;;;7.44;nan
34328;BME280;20588;48.840;10.064;2024-02-16T05:16:30;96338.66;;;7.45;nan
34328;BME280;20588;48.840;10.064;2024-02-16T05:18:57;96330.00;;;7.53;nan
34328;BME280;20588;48.840;10.064;2024-02-16T05:21:24;96327.81;;;7.56;nan
34328;BME280;20588;48.840;10.064;2024-02-16T05:23:50;96316.00;;;7.68;nan
34328;BME280;20588;48.840;10.064;2024-02-16T05:26:16;96328.03;;;7.81;nan
34328;BME280;20588;48.840;10.064;2024-02-16T05:28:42;96322.72;;;7.82;nan
34328;BME280;20588;48.840;10.064;2024-02-16T05:31:16;96333.75;;;7.96;nan
34328;BME280;20588;48.840;10.064;2024-02-16T05:33:44;96326.84;;;7.96;nan
34328;BME280;20588;48.840;10.064;2024-02-16T05:36:10;96328.81;;;8.01;nan
34328;BME280;20588;48.840;10.064;2024-02-16T05:38:38;96327.22;;;8.06;nan
34328;BME280;20588;48.840;10.064;2024-02-16T05:41:10;96329.19;;;8.11;nan
34328;BME280;20588;48.840;10.064;2024-02-16T05:43:37;96321.50;;;8.11;nan
34328;BME280;20588;48.840;10.064;2024-02-16T05:46:04;96323.50;;;8.09;nan
34328;BME280;20588;48.840;10.064;2024-02-16T05:48:33;96331.00;;;8.10;nan
34328;BME280;20588;48.840;10.064;2024-02-16T05:51:03;96321.13;;;8.07;nan
34328;BME280;20588;48.840;10.064;2024-02-16T05:53:31;96317.78;;;8.26;nan
34328;BME280;20588;48.840;10.064;2024-02-16T05:55:57;96326.88;;;8.22;nan
34328;BME280;20588;48.840;10.064;2024-02-16T05:58:24;96325.06;;;8.23;nan
34328;BME280;20588;48.840;10.064;2024-02-16T06:00:50;96320.94;;;8.28;nan
34328;BME280;20588;48.840;10.064;2024-02-16T06:03:16;96321.69;;;8.35;nan
34328;BME280;20588;48.840;10.064;2024-02-16T06:05:43;96325.44;;;8.39;nan
34328;BME280;20588;48.840;10.064;2024-02-16T06:08:12;96327.38;;;8.44;nan
34328;BME280;20588;48.840;10.064;2024-02-16T06:10:38;96321.91;;;8.40;nan
34328;BME280;20588;48.840;10.064;2024-02-16T06:13:05;96321.91;;;8.40;nan
34328;BME280;20588;48.840;10.064;2024-02-16T06:15:32;96320.72;;;8.36;nan
34328;BME280;20588;48.840;10.064;2024-02-16T06:18:00;96328.78;;;8.33;nan
34328;BME280;20588;48.840;10.064;2024-02-16T06:20:26;96335.72;;;8.33;nan
34328;BME280;20588;48.840;10.064;2024-02-16T06:22:52;96337.09;;;8.35;nan
34328;BME280;20588;48.840;10.064;2024-02-16T06:25:19;96338.09;;;8.34;nan
34328;BME280;20588;48.840;10.064;2024-02-16T06:27:45;96350.69;;;8.36;nan
34328;BME280;20588;48.840;10.064;2024-02-16T06:30:12;96351.47;;;8.36;nan
34328;BME280;20588;48.840;10.064;2024-02-16T06:32:39;96356.19;;;8.39;nan
34328;BME280;20588;48.840;10.064;2024-02-16T06:35:07;96357.59;;;8.42;nan
34328;BME280;20588;48.840;10.064;2024-02-16T06:37:33;96354.81;;;8.43;nan
34328;BME280;20588;48.840;10.064;2024-02-16T06:39:59;96363.88;;;8.46;nan
34328;BME280;20588;48.840;10.064;2024-02-16T06:42:25;96381.63;;;8.47;nan
34328;BME280;20588;48.840;10.064;2024-02-16T06:44:52;96384.00;;;8.49;nan
34328;BME280;20588;48.840;10.064;2024-02-16T06:47:18;96380.44;;;8.50;nan
34328;BME280;20588;48.840;10.064;2024-02-16T06:49:44;96384.75;;;8.56;nan
34328;BME280;20588;48.840;10.064;2024-02-16T06:52:12;96379.63;;;8.62;nan
34328;BME280;20588;48.840;10.064;2024-02-16T06:54:38;96387.72;;;8.66;nan
34328;BME280;20588;48.840;10.064;2024-02-16T06:57:04;96390.09;;;8.67;nan
34328;BME280;20588;48.840;10.064;2024-02-16T06:59:31;96393.81;;;8.71;nan
34328;BME280;20588;48.840;10.064;2024-02-16T07:01:57;96394.38;;;8.80;nan
34328;BME280;20588;48.840;10.064;2024-02-16T07:04:23;96393.78;;;8.84;nan
34328;BME280;20588;48.840;10.064;2024-02-16T07:06:49;96392.19;;;8.90;nan
34328;BME280;20588;48.840;10.064;2024-02-16T07:09:15;96397.72;;;8.93;nan
34328;BME280;20588;48.840;10.064;2024-02-16T07:11:41;96396.09;;;8.99;nan
34328;BME280;20588;48.840;10.064;2024-02-16T07:14:08;96406.31;;;9.12;nan
34328;BME280;20588;48.840;10.064;2024-02-16T07:16:34;96408.84;;;9.25;nan
34328;BME280;20588;48.840;10.064;2024-02-16T07:19:00;96402.28;;;9.36;nan
34328;BME280;20588;48.840;10.064;2024-02-16T07:21:26;96401.47;;;9.42;nan
34328;BME280;20588;48.840;10.064;2024-02-16T07:23:53;96402.41;;;9.47;nan
34328;BME280;20588;48.840;10.064;2024-02-16T07:26:19;96413.84;;;9.51;nan
34328;BME280;20588;48.840;10.064;2024-02-16T07:28:45;96410.69;;;9.56;nan
34328;BME280;20588;48.840;10.064;2024-02-16T07:31:11;96405.69;;;9.61;nan
34328;BME280;20588;48.840;10.064;2024-02-16T07:33:37;96405.47;;;9.69;nan
34328;BME280;20588;48.840;10.064;2024-02-16T07:36:04;96410.34;;;9.77;nan
34328;BME280;20588;48.840;10.064;2024-02-16T07:38:30;96409.88;;;9.86;nan
34328;BME280;20588;48.840;10.064;2024-02-16T07:40:56;96412.59;;;9.98;nan
34328;BME280;20588;48.840;10.064;2024-02-16T07:43:22;96417.44;;;10.12;nan
34328;BME280;20588;48.840;10.064;2024-02-16T07:45:50;96408.06;;;10.24;nan
34328;BME280;20588;48.840;10.064;2024-02-16T07:48:16;96410.16;;;10.34;nan
34328;BME280;20588;48.840;10.064;2024-02-16T07:50:42;96413.41;;;10.47;nan
34328;BME280;20588;48.840;10.064;2024-02-16T07:53:08;96421.41;;;10.57;nan
34328;BME280;20588;48.840;10.064;2024-02-16T07:55:37;96421.94;;;10.66;nan
34328;BME280;20588;48.840;10.064;2024-02-16T07:58:03;96417.47;;;10.79;nan
34328;BME280;20588;48.840;10.064;2024-02-16T08:00:29;96413.88;;;10.98;nan
34328;BME280;20588;48.840;10.064;2024-02-16T08:02:55;96415.47;;;11.18;nan
34328;BME280;20588;48.840;10.064;2024-02-16T08:05:21;96417.16;;;11.42;nan
34328;BME280;20588;48.840;10.064;2024-02-16T08:07:48;96421.97;;;11.68;nan
34328;BME280;20588;48.840;10.064;2024-02-16T08:10:14;96416.97;;;12.02;nan
34328;BME280;20588;48.840;10.064;2024-02-16T08:12:41;96420.16;;;12.50;nan
34328;BME280;20588;48.840;10.064;2024-02-16T08:15:07;96414.38;;;13.18;nan
34328;BME280;20588;48.840;10.064;2024-02-16T08:17:34;96418.50;;;14.14;nan
34328;BME280;20588;48.840;10.064;2024-02-16T08:20:00;96411.53;;;15.24;nan
34328;BME280;20588;48.840;10.064;2024-02-16T08:22:27;96413.84;;;16.49;nan
34328;BME280;20588;48.840;10.064;2024-02-16T08:24:53;96415.47;;;17.53;nan
34328;BME280;20588;48.840;10.064;2024-02-16T08:27:19;96414.84;;;18.58;nan
34328;BME280;20588;48.840;10.064;2024-02-16T08:29:45;96417.09;;;19.09;nan
34328;BME280;20588;48.840;10.064;2024-02-16T08:32:11;96416.03;;;19.20;nan
34328;BME280;20588;48.840;10.064;2024-02-16T08:34:38;96413.75;;;18.79;nan
34328;BME280;20588;48.840;10.064;2024-02-16T08:37:05;96421.63;;;18.49;nan
34328;BME280;20588;48.840;10.064;2024-02-16T08:39:31;96421.06;;;18.32;nan
34328;BME280;20588;48.840;10.064;2024-02-16T08:41:58;96423.16;;;18.25;nan
34328;BME280;20588;48.840;10.064;2024-02-16T08:44:25;96419.75;;;18.89;nan
34328;BME280;20588;48.840;10.064;2024-02-16T08:46:51;96416.06;;;20.51;nan
34328;BME280;20588;48.840;10.064;2024-02-16T08:49:17;96417.72;;;20.99;nan
34328;BME280;20588;48.840;10.064;2024-02-16T08:51:43;96422.63;;;20.77;nan
34328;BME280;20588;48.840;10.064;2024-02-16T08:54:10;96421.91;;;20.72;nan
34328;BME280;20588;48.840;10.064;2024-02-16T08:56:36;96421.16;;;20.95;nan
34328;BME280;20588;48.840;10.064;2024-02-16T08:59:05;96423.66;;;21.94;nan
34328;BME280;20588;48.840;10.064;2024-02-16T09:01:32;96417.31;;;22.51;nan
34328;BME280;20588;48.840;10.064;2024-02-16T09:03:59;96424.81;;;24.42;nan
34328;BME280;20588;48.840;10.064;2024-02-16T09:06:26;96419.88;;;26.39;nan
34328;BME280;20588;48.840;10.064;2024-02-16T09:08:52;96412.66;;;28.28;nan
34328;BME280;20588;48.840;10.064;2024-02-16T09:11:18;96411.94;;;30.29;nan
34328;BME280;20588;48.840;10.064;2024-02-16T09:13:44;96414.88;;;31.60;nan
34328;BME280;20588;48.840;10.064;2024-02-16T09:16:10;96415.94;;;32.44;nan
34328;BME280;20588;48.840;10.064;2024-02-16T09:18:37;96414.50;;;32.88;nan
34328;BME280;20588;48.840;10.064;2024-02-16T09:21:04;96410.22;;;35.13;nan
34328;BME280;20588;48.840;10.064;2024-02-16T09:23:33;96406.84;;;36.60;nan
34328;BME280;20588;48.840;10.064;2024-02-16T09:26:00;96406.59;;;34.55;nan
34328;BME280;20588;48.840;10.064;2024-02-16T09:28:29;96398.22;;;31.98;nan
34328;BME280;20588;48.840;10.064;2024-02-16T09:30:56;96399.59;;;28.76;nan
34328;BME280;20588;48.840;10.064;2024-02-16T09:33:22;96400.56;;;27.28;nan
34328;BME280;20588;48.840;10.064;2024-02-16T09:35:50;96402.03;;;25.85;nan
34328;BME280;20588;48.840;10.064;2024-02-16T09:38:16;96397.06;;;24.89;nan
34328;BME280;20588;48.840;10.064;2024-02-16T09:40:43;96400.81;;;23.99;nan
34328;BME280;20588;48.840;10.064;2024-02-16T09:43:10;96406.53;;;23.25;nan
34328;BME280;20588;48.840;10.064;2024-02-16T09:45:36;96414.88;;;22.86;nan
34328;BME280;20588;48.840;10.064;2024-02-16T09:48:04;96407.81;;;22.36;nan
34328;BME280;20588;48.840;10.064;2024-02-16T09:50:33;96411.88;;;22.10;nan
34328;BME280;20588;48.840;10.064;2024-02-16T09:53:00;96414.88;;;21.85;nan
34328;BME280;20588;48.840;10.064;2024-02-16T09:55:32;96418.44;;;21.71;nan
34328;BME280;20588;48.840;10.064;2024-02-16T09:58:01;96418.16;;;21.54;nan
34328;BME280;20588;48.840;10.064;2024-02-16T10:00:28;96426.41;;;21.42;nan
34328;BME280;20588;48.840;10.064;2024-02-16T10:02:54;96421.19;;;21.18;nan
34328;BME280;20588;48.840;10.064;2024-02-16T10:05:21;96419.03;;;21.02;nan
34328;BME280;20588;48.840;10.064;2024-02-16T10:07:48;96423.91;;;20.80;nan
34328;BME280;20588;48.840;10.064;2024-02-16T10:10:27;96420.88;;;20.68;nan
34328;BME280;20588;48.840;10.064;2024-02-16T10:13:04;96423.19;;;20.46;nan
34328;BME280;20588;48.840;10.064;2024-02-16T10:15:32;96431.63;;;20.33;nan
34328;BME280;20588;48.840;10.064;2024-02-16T10:18:05;96430.66;;;20.24;nan
34328;BME280;20588;48.840;10.064;2024-02-16T10:20:33;96432.25;;;20.20;nan
34328;BME280;20588;48.840;10.064;2024-02-16T10:23:07;96434.91;;;20.15;nan
34328;BME280;20588;48.840;10.064;2024-02-16T10:25:34;96438.84;;;20.07;nan
34328;BME280;20588;48.840;10.064;2024-02-16T10:28:03;96436.81;;;19.99;nan
34328;BME280;20588;48.840;10.064;2024-02-16T10:30:30;96438.56;;;20.09;nan
34328;BME280;20588;48.840;10.064;2024-02-16T10:33:00;96441.44;;;20.12;nan
34328;BME280;20588;48.840;10.064;2024-02-16T10:35:26;96450.84;;;20.13;nan
34328;BME280;20588;48.840;10.064;2024-02-16T10:37:54;96449.28;;;20.12;nan
34328;BME280;20588;48.840;10.064;2024-02-16T10:40:23;96450.09;;;20.13;nan
34328;BME280;20588;48.840;10.064;2024-02-16T10:42:52;96450.31;;;20.16;nan
34328;BME280;20588;48.840;10.064;2024-02-16T10:45:18;96448.38;;;20.32;nan
34328;BME280;20588;48.840;10.064;2024-02-16T10:47:45;96450.72;;;20.33;nan
34328;BME280;20588;48.840;10.064;2024-02-16T10:50:12;96454.84;;;20.39;nan
34328;BME280;20588;48.840;10.064;2024-02-16T10:52:41;96450.69;;;20.38;nan
34328;BME280;20588;48.840;10.064;2024-02-16T10:55:09;96455.44;;;20.31;nan
34328;BME280;20588;48.840;10.064;2024-02-16T10:57:39;96455.69;;;20.30;nan
34328;BME280;20588;48.840;10.064;2024-02-16T11:00:09;96452.50;;;20.43;nan
34328;BME280;20588;48.840;10.064;2024-02-16T11:02:53;96454.50;;;20.51;nan
34328;BME280;20588;48.840;10.064;2024-02-16T11:05:35;96454.47;;;20.56;nan
34328;BME280;20588;48.840;10.064;2024-02-16T11:08:03;96453.50;;;20.75;nan
34328;BME280;20588;48.840;10.064;2024-02-16T11:10:29;96447.09;;;20.91;nan
34328;BME280;20588;48.840;10.064;2024-02-16T11:13:04;96463.34;;;21.17;nan
34328;BME280;20588;48.840;10.064;2024-02-16T11:15:34;96462.34;;;21.13;nan
34328;BME280;20588;48.840;10.064;2024-02-16T11:18:02;96460.53;;;21.37;nan
34328;BME280;20588;48.840;10.064;2024-02-16T11:20:36;96458.50;;;21.29;nan
34328;BME280;20588;48.840;10.064;2024-02-16T11:23:08;96458.69;;;21.61;nan
34328;BME280;20588;48.840;10.064;2024-02-16T11:25:34;96468.44;;;21.79;nan
34328;BME280;20588;48.840;10.064;2024-02-16T11:28:02;96459.28;;;21.95;nan
34328;BME280;20588;48.840;10.064;2024-02-16T11:30:33;96462.25;;;21.89;nan
34328;BME280;20588;48.840;10.064;2024-02-16T11:33:01;96464.19;;;22.02;nan
34328;BME280;20588;48.840;10.064;2024-02-16T11:35:27;96463.19;;;22.16;nan
34328;BME280;20588;48.840;10.064;2024-02-16T11:37:56;96459.78;;;22.34;nan
34328;BME280;20588;48.840;10.064;2024-02-16T11:40:22;96461.47;;;22.62;nan
34328;BME280;20588;48.840;10.064;2024-02-16T11:42:48;96471.56;;;22.87;nan
34328;BME280;20588;48.840;10.064;2024-02-16T11:45:14;96468.00;;;23.10;nan
34328;BME280;20588;48.840;10.064;2024-02-16T11:47:41;96469.78;;;23.29;nan
34328;BME280;20588;48.840;10.064;2024-02-16T11:50:09;96476.22;;;23.36;nan
34328;BME280;20588;48.840;10.064;2024-02-16T11:52:41;96473.38;;;23.46;nan
34328;BME280;20588;48.840;10.064;2024-02-16T11:55:11;96473.00;;;23.66;nan
34328;BME280;20588;48.840;10.064;2024-02-16T11:57:38;96471.66;;;23.69;nan
34328;BME280;20588;48.840;10.064;2024-02-16T12:00:04;96477.19;;;23.81;nan
34328;BME280;20588;48.840;10.064;2024-02-16T12:02:37;96474.09;;;23.65;nan
34328;BME280;20588;48.840;10.064;2024-02-16T12:05:03;96486.25;;;23.48;nan
34328;BME280;20588;48.840;10.064;2024-02-16T12:07:30;96481.97;;;23.38;nan
34328;BME280;20588;48.840;10.064;2024-02-16T12:10:00;96484.78;;;23.28;nan
34328;BME280;20588;48.840;10.064;2024-02-16T12:12:26;96476.19;;;23.23;nan
34328;BME280;20588;48.840;10.064;2024-02-16T12:14:53;96473.63;;;23.17;nan
34328;BME280;20588;48.840;10.064;2024-02-16T12:17:20;96472.66;;;23.00;nan
34328;BME280;20588;48.840;10.064;2024-02-16T12:19:46;96482.66;;;22.98;nan
34328;BME280;20588;48.840;10.064;2024-02-16T12:22:20;96478.66;;;22.87;nan
34328;BME280;20588;48.840;10.064;2024-02-16T12:24:47;96484.81;;;22.64;nan
34328;BME280;20588;48.840;10.064;2024-02-16T12:27:13;96485.75;;;22.54;nan
34328;BME280;20588;48.840;10.064;2024-02-16T12:29:40;96487.78;;;22.57;nan
34328;BME280;20588;48.840;10.064;2024-02-16T12:32:06;96488.78;;;22.61;nan
34328;BME280;20588;48.840;10.064;2024-02-16T12:34:33;96484.09;;;22.58;nan
34328;BME280;20588;48.840;10.064;2024-02-16T12:36:59;96488.13;;;22.69;nan
34328;BME280;20588;48.840;10.064;2024-02-16T12:39:25;96481.81;;;22.70;nan
34328;BME280;20588;48.840;10.064;2024-02-16T12:41:51;96481.16;;;22.78;nan
34328;BME280;20588;48.840;10.064;2024-02-16T12:44:17;96482.34;;;22.86;nan
34328;BME280;20588;48.840;10.064;2024-02-16T12:46:43;96485.28;;;22.98;nan
34328;BME280;20588;48.840;10.064;2024-02-16T12:49:09;96475.50;;;23.17;nan
34328;BME280;20588;48.840;10.064;2024-02-16T12:51:35;96480.50;;;23.59;nan
34328;BME280;20588;48.840;10.064;2024-02-16T12:54:01;96484.50;;;23.97;nan
34328;BME280;20588;48.840;10.064;2024-02-16T12:56:31;96480.16;;;24.15;nan
34328;BME280;20588;48.840;10.064;2024-02-16T12:58:57;96472.66;;;24.22;nan
34328;BME280;20588;48.840;10.064;2024-02-16T13:01:26;96475.94;;;24.27;nan
34328;BME280;20588;48.840;10.064;2024-02-16T13:03:52;96476.13;;;24.31;nan
34328;BME280;20588;48.840;10.064;2024-02-16T13:06:19;96464.53;;;24.32;nan
34328;BME280;20588;48.840;10.064;2024-02-16T13:08:45;96476.13;;;24.31;nan
34328;BME280;20588;48.840;10.064;2024-02-16T13:11:11;96480.94;;;24.15;nan
34328;BME280;20588;48.840;10.064;2024-02-16T13:13:38;96480.34;;;24.18;nan